Time;durP1;ratioP1;P1;durP2;ratioP2;P2;SDS_P1;SDS_P2;PMS_P1;PMS_P2;Temp;Humidity;BMP_temperature;BMP_pressure;BME280_temperature;BME280_humidity;BME280_pressure;Samples;Min_cycle;Max_cycle;Signal;HPM_P1;HPM_P2
2022/03/29 00:01:58;;;;;;;23.10;12.67;;;14.90;71.70;;;;;;5027905;28;20469;-68
2022/03/29 00:04:24;;;;;;;27.47;12.23;;;14.80;72.10;;;;;;5034959;28;20869;-68
2022/03/29 00:06:51;;;;;;;19.00;12.00;;;14.80;72.50;;;;;;5022735;28;20464;-69
2022/03/29 00:09:16;;;;;;;23.87;13.83;;;14.80;72.00;;;;;;5032529;28;20451;-68
2022/03/29 00:11:43;;;;;;;22.13;12.77;;;14.70;71.70;;;;;;5024427;28;20603;-68
2022/03/29 00:14:09;;;;;;;20.30;13.60;;;14.70;71.80;;;;;;5027549;28;20701;-68
2022/03/29 00:16:35;;;;;;;25.00;12.90;;;14.70;71.70;;;;;;5041697;28;21032;-67
2022/03/29 00:19:01;;;;;;;24.73;13.40;;;14.70;72.00;;;;;;5046673;28;20542;-67
2022/03/29 00:21:27;;;;;;;30.33;14.03;;;14.60;73.20;;;;;;5043110;28;20242;-68
2022/03/29 00:23:53;;;;;;;24.87;13.60;;;14.50;73.60;;;;;;5017194;28;20224;-68
2022/03/29 00:26:18;;;;;;;24.23;12.97;;;14.50;74.20;;;;;;5024602;28;20232;-67
2022/03/29 00:28:44;;;;;;;26.30;13.60;;;14.40;74.30;;;;;;5039892;28;20899;-68
2022/03/29 00:31:12;;;;;;;24.57;13.30;;;14.40;74.30;;;;;;5030778;28;20220;-68
2022/03/29 00:33:38;;;;;;;23.60;13.27;;;14.30;74.80;;;;;;5020574;28;20603;-67
2022/03/29 00:36:04;;;;;;;28.30;15.00;;;14.30;75.10;;;;;;5034036;28;20780;-68
2022/03/29 00:38:30;;;;;;;27.43;15.40;;;14.20;75.10;;;;;;5026698;28;20454;-67
2022/03/29 00:40:56;;;;;;;22.93;14.60;;;14.20;75.20;;;;;;5037840;28;20215;-68
2022/03/29 00:43:23;;;;;;;26.27;12.70;;;14.20;75.60;;;;;;5048532;28;20219;-67
2022/03/29 00:45:49;;;;;;;24.27;13.80;;;14.20;75.70;;;;;;5035418;28;20454;-67
2022/03/29 00:48:15;;;;;;;24.63;13.03;;;14.10;75.70;;;;;;5022026;28;20527;-68
2022/03/29 00:50:43;;;;;;;29.27;14.90;;;14.10;75.80;;;;;;5028293;28;20316;-68
2022/03/29 00:53:10;;;;;;;25.57;13.30;;;14.10;76.30;;;;;;5030512;28;20216;-67
2022/03/29 00:55:36;;;;;;;32.10;16.57;;;14.00;76.00;;;;;;5033015;28;20458;-68
2022/03/29 00:58:03;;;;;;;29.33;14.60;;;14.00;76.30;;;;;;5034577;28;20501;-68
2022/03/29 01:00:33;;;;;;;20.70;12.13;;;14.00;76.70;;;;;;5033649;28;20513;-66
2022/03/29 01:03:01;;;;;;;23.57;12.90;;;14.00;76.50;;;;;;5026578;28;20978;-68
2022/03/29 01:05:27;;;;;;;26.17;13.93;;;14.00;76.20;;;;;;5045320;28;20557;-68
2022/03/29 01:07:56;;;;;;;20.20;12.27;;;14.10;76.10;;;;;;5033296;28;20509;-68
2022/03/29 01:10:23;;;;;;;30.37;16.73;;;14.10;75.70;;;;;;5034494;28;20220;-68
2022/03/29 01:12:50;;;;;;;27.23;17.07;;;14.10;75.80;;;;;;5031707;28;20462;-67
2022/03/29 01:15:16;;;;;;;31.03;16.57;;;14.10;76.00;;;;;;5046266;28;20836;-68
2022/03/29 01:17:43;;;;;;;24.90;14.93;;;14.10;76.70;;;;;;5035450;28;20451;-66
2022/03/29 01:20:18;;;;;;;25.87;15.10;;;14.00;77.20;;;;;;5037225;28;20987;-69
2022/03/29 01:22:49;;;;;;;28.60;14.17;;;13.90;77.50;;;;;;5031598;28;20450;-67
2022/03/29 01:25:18;;;;;;;25.27;15.70;;;13.90;77.90;;;;;;5046590;28;20459;-67
2022/03/29 01:27:46;;;;;;;23.40;13.83;;;13.90;78.30;;;;;;5036862;28;20452;-68
2022/03/29 01:30:14;;;;;;;20.67;13.73;;;13.80;78.20;;;;;;5018613;28;20454;-68
2022/03/29 01:32:43;;;;;;;32.67;15.50;;;13.80;78.00;;;;;;5014321;28;21061;-69
2022/03/29 01:35:08;;;;;;;22.67;12.60;;;13.80;78.30;;;;;;5000698;28;20463;-67
2022/03/29 01:37:35;;;;;;;23.70;12.47;;;13.70;78.60;;;;;;5030411;28;20490;-69
2022/03/29 01:40:12;;;;;;;24.23;13.10;;;13.70;78.40;;;;;;5045583;28;20232;-68
2022/03/29 01:42:42;;;;;;;25.60;13.03;;;13.70;78.00;;;;;;5028173;28;20471;-68
2022/03/29 01:45:09;;;;;;;27.87;14.40;;;13.70;77.70;;;;;;5025616;28;20456;-70
2022/03/29 01:47:35;;;;;;;25.50;14.07;;;13.80;77.30;;;;;;5042911;28;20472;-68
2022/03/29 01:50:01;;;;;;;24.30;12.57;;;13.80;76.70;;;;;;5021366;28;20995;-67
2022/03/29 01:52:26;;;;;;;21.83;12.57;;;13.80;76.90;;;;;;5022098;28;20459;-69
2022/03/29 01:54:52;;;;;;;23.37;12.73;;;13.80;77.00;;;;;;5025363;28;20228;-68
2022/03/29 01:57:18;;;;;;;25.67;14.27;;;13.80;77.00;;;;;;5045779;28;20226;-67
2022/03/29 02:02:29;;;;;;;26.90;14.37;;;13.80;77.00;;;;;;5018832;28;20579;-68
2022/03/29 02:04:55;;;;;;;22.37;12.30;;;13.80;77.00;;;;;;5032881;28;20502;-68
2022/03/29 02:07:23;;;;;;;22.40;14.53;;;13.80;77.20;;;;;;5023966;28;20969;-68
2022/03/29 02:09:48;;;;;;;21.93;13.57;;;13.80;77.20;;;;;;5017401;28;20220;-67
2022/03/29 02:12:14;;;;;;;27.03;13.23;;;13.80;77.20;;;;;;5031357;28;20474;-68
2022/03/29 02:14:40;;;;;;;25.07;15.43;;;13.80;77.30;;;;;;5025754;28;20204;-68
2022/03/29 02:17:06;;;;;;;23.87;14.33;;;13.80;77.50;;;;;;5048788;28;20224;-68
2022/03/29 02:19:32;;;;;;;23.23;13.07;;;13.80;77.50;;;;;;5039086;28;20323;-67
2022/03/29 02:21:58;;;;;;;21.07;12.70;;;13.80;77.50;;;;;;5044509;28;20537;-69
2022/03/29 02:24:23;;;;;;;27.47;15.37;;;13.80;77.60;;;;;;5033644;28;20365;-69
2022/03/29 02:26:49;;;;;;;27.50;14.13;;;13.80;77.70;;;;;;5031634;28;20216;-68
2022/03/29 02:29:15;;;;;;;21.73;14.47;;;13.80;77.50;;;;;;5033870;28;20694;-68
2022/03/29 02:31:40;;;;;;;23.37;13.40;;;13.70;77.50;;;;;;5045122;28;20220;-67
2022/03/29 02:34:06;;;;;;;29.50;15.03;;;13.70;77.80;;;;;;5044940;28;20224;-69
2022/03/29 02:36:32;;;;;;;23.73;13.97;;;13.70;77.80;;;;;;5038354;28;20217;-68
2022/03/29 02:38:57;;;;;;;24.50;14.57;;;13.70;78.00;;;;;;5029024;28;20285;-69
2022/03/29 02:41:23;;;;;;;22.90;13.90;;;13.70;78.20;;;;;;5040295;28;20221;-67
2022/03/29 02:43:49;;;;;;;28.40;15.60;;;13.70;78.30;;;;;;5012506;28;20612;-69
2022/03/29 02:46:14;;;;;;;25.43;12.80;;;13.60;78.40;;;;;;5013305;28;20590;-67
2022/03/29 02:48:40;;;;;;;26.57;13.47;;;13.70;78.60;;;;;;5036671;28;20631;-68
2022/03/29 02:51:06;;;;;;;26.40;14.17;;;13.60;78.70;;;;;;5028587;28;20304;-69
2022/03/29 02:53:32;;;;;;;27.83;16.20;;;13.60;78.40;;;;;;5032087;28;20271;-66
2022/03/29 02:55:58;;;;;;;24.40;13.97;;;13.60;79.00;;;;;;5031132;28;20219;-69
2022/03/29 02:58:24;;;;;;;21.10;13.77;;;13.60;78.70;;;;;;5017147;28;20521;-67
2022/03/29 03:00:51;;;;;;;24.57;11.90;;;13.60;78.50;;;;;;5044116;28;20231;-68
2022/03/29 03:03:17;;;;;;;23.33;12.57;;;13.60;78.80;;;;;;5042352;28;20718;-69
2022/03/29 03:05:43;;;;;;;27.00;14.17;;;13.60;78.90;;;;;;5023997;28;20626;-67
2022/03/29 03:08:08;;;;;;;27.30;14.00;;;13.60;78.90;;;;;;5031341;28;20235;-67
2022/03/29 03:10:34;;;;;;;23.60;13.47;;;13.60;78.90;;;;;;5030921;28;20590;-68
2022/03/29 03:13:00;;;;;;;24.73;14.37;;;13.60;78.90;;;;;;5037812;28;20235;-68
2022/03/29 03:15:26;;;;;;;28.07;13.80;;;13.60;79.00;;;;;;5035031;28;20248;-67
2022/03/29 03:17:53;;;;;;;27.40;16.03;;;13.60;79.10;;;;;;5033680;28;20303;-67
2022/03/29 03:20:20;;;;;;;31.00;15.53;;;13.50;79.10;;;;;;5041238;28;20446;-66
2022/03/29 03:22:46;;;;;;;23.43;14.20;;;13.50;79.20;;;;;;5048992;28;20454;-68
2022/03/29 03:25:11;;;;;;;24.97;15.50;;;13.50;79.40;;;;;;5032820;28;20473;-67
2022/03/29 03:27:40;;;;;;;29.00;15.53;;;13.50;79.50;;;;;;5030105;28;20225;-68
2022/03/29 03:30:08;;;;;;;27.63;14.87;;;13.50;79.50;;;;;;5035393;28;20216;-68
2022/03/29 03:32:34;;;;;;;31.77;17.30;;;13.50;79.80;;;;;;5038372;28;20455;-68
2022/03/29 03:35:00;;;;;;;29.90;16.27;;;13.50;80.00;;;;;;5031588;28;20458;-68
2022/03/29 03:37:28;;;;;;;28.80;16.70;;;13.40;79.60;;;;;;5021741;28;20252;-67
2022/03/29 03:39:54;;;;;;;31.10;16.03;;;13.40;79.40;;;;;;5030900;28;20240;-68
2022/03/29 03:42:20;;;;;;;28.60;15.67;;;13.40;79.60;;;;;;5030136;28;21050;-68
2022/03/29 03:44:45;;;;;;;27.60;17.63;;;13.40;79.50;;;;;;5034334;28;20302;-68
2022/03/29 03:47:11;;;;;;;28.10;16.03;;;13.40;79.50;;;;;;5042301;28;20217;-67
2022/03/29 03:49:38;;;;;;;31.43;15.53;;;13.40;79.90;;;;;;5032105;28;20593;-68
2022/03/29 03:52:05;;;;;;;32.87;15.00;;;13.40;80.10;;;;;;5024753;28;20733;-68
2022/03/29 03:54:38;;;;;;;27.87;16.03;;;13.40;80.20;;;;;;5036387;28;20832;-68
2022/03/29 03:57:05;;;;;;;26.57;16.13;;;13.30;80.10;;;;;;5012167;28;20494;-68
2022/03/29 03:59:31;;;;;;;26.40;16.30;;;13.30;80.30;;;;;;5035153;28;20471;-69
2022/03/29 04:01:57;;;;;;;32.07;15.43;;;13.30;80.40;;;;;;5042511;28;20486;-69
2022/03/29 04:04:23;;;;;;;25.27;14.63;;;13.30;80.40;;;;;;5019250;28;20543;-68
2022/03/29 04:06:49;;;;;;;29.00;16.07;;;13.30;80.40;;;;;;5010568;28;20548;-67
2022/03/29 04:09:14;;;;;;;26.90;15.47;;;13.30;80.40;;;;;;5012628;28;20247;-69
2022/03/29 04:11:40;;;;;;;30.00;15.63;;;13.30;80.60;;;;;;5036287;28;20231;-67
2022/03/29 04:14:06;;;;;;;27.83;16.57;;;13.30;80.60;;;;;;5035471;28;20227;-68
2022/03/29 04:16:31;;;;;;;32.90;16.90;;;13.30;80.90;;;;;;5024661;28;20232;-68
2022/03/29 04:18:57;;;;;;;30.97;17.50;;;13.20;80.80;;;;;;5028088;28;20308;-66
2022/03/29 04:21:23;;;;;;;30.47;17.40;;;13.20;81.20;;;;;;5054568;28;20630;-66
2022/03/29 04:23:48;;;;;;;31.13;17.10;;;13.20;80.90;;;;;;5047298;28;20626;-68
2022/03/29 04:26:14;;;;;;;30.83;17.80;;;13.20;81.10;;;;;;5027705;28;20248;-69
2022/03/29 04:28:40;;;;;;;33.30;17.60;;;13.20;81.20;;;;;;5036930;28;20282;-68
2022/03/29 04:31:08;;;;;;;34.17;17.60;;;13.20;81.10;;;;;;5033222;28;20204;-69
2022/03/29 04:33:34;;;;;;;30.37;18.00;;;13.10;81.20;;;;;;5047231;28;20259;-67
2022/03/29 04:35:59;;;;;;;38.40;19.30;;;13.20;81.40;;;;;;5040115;28;21007;-66
2022/03/29 04:38:25;;;;;;;33.10;17.33;;;13.10;81.80;;;;;;5018619;28;20207;-67
2022/03/29 04:40:51;;;;;;;44.57;19.80;;;13.10;81.80;;;;;;5013161;28;20569;-68
2022/03/29 04:43:17;;;;;;;35.90;18.93;;;13.10;81.80;;;;;;5040228;28;20209;-67
2022/03/29 04:45:42;;;;;;;38.10;19.50;;;13.00;81.70;;;;;;5047372;28;20472;-68
2022/03/29 04:48:09;;;;;;;32.43;18.07;;;13.10;82.00;;;;;;5006411;28;20695;-68
2022/03/29 04:50:35;;;;;;;34.57;18.40;;;13.10;82.20;;;;;;5023869;28;20304;-67
2022/03/29 04:53:01;;;;;;;40.00;18.77;;;13.00;82.60;;;;;;5037061;28;20497;-68
2022/03/29 04:55:27;;;;;;;31.90;18.43;;;13.00;83.30;;;;;;5021526;28;20216;-67
2022/03/29 04:57:52;;;;;;;28.40;17.87;;;12.80;83.60;;;;;;5027649;28;20227;-66
2022/03/29 05:00:21;;;;;;;33.23;17.90;;;12.80;83.80;;;;;;5031170;28;20700;-69
2022/03/29 05:02:47;;;;;;;38.90;18.90;;;12.80;83.30;;;;;;5025779;28;20212;-68
2022/03/29 05:05:13;;;;;;;32.90;18.70;;;12.90;83.30;;;;;;5040070;28;20467;-68
2022/03/29 05:07:40;;;;;;;33.80;19.47;;;12.90;83.30;;;;;;5032807;28;20881;-66
2022/03/29 05:10:08;;;;;;;34.13;19.63;;;12.80;83.20;;;;;;5025899;28;20448;-68
2022/03/29 05:12:45;;;;;;;30.47;18.97;;;12.80;83.00;;;;;;5024728;28;20509;-68
2022/03/29 05:15:12;;;;;;;34.00;19.40;;;12.80;83.10;;;;;;5030550;28;20451;-69
2022/03/29 05:17:39;;;;;;;36.80;20.30;;;12.80;82.90;;;;;;5012846;28;20593;-68
2022/03/29 05:20:06;;;;;;;33.77;18.60;;;12.80;83.20;;;;;;5034221;28;21069;-69
2022/03/29 05:22:40;;;;;;;33.13;18.20;;;12.80;83.30;;;;;;5043503;28;20499;-69
2022/03/29 05:25:06;;;;;;;42.50;20.73;;;12.80;83.20;;;;;;5038645;28;20945;-68
2022/03/29 05:27:31;;;;;;;45.73;23.23;;;12.80;83.20;;;;;;5027614;28;20462;-70
2022/03/29 05:29:57;;;;;;;43.43;23.80;;;12.80;83.80;;;;;;5024988;28;20216;-68
2022/03/29 05:32:23;;;;;;;42.80;24.10;;;12.70;84.10;;;;;;5028203;28;20307;-69
2022/03/29 05:34:48;;;;;;;35.13;21.27;;;12.60;83.90;;;;;;5045623;28;20228;-71
2022/03/29 05:37:14;;;;;;;44.83;22.40;;;12.70;84.00;;;;;;5023453;28;20208;-68
2022/03/29 05:39:43;;;;;;;43.03;21.57;;;12.70;84.20;;;;;;5029728;28;20221;-69
2022/03/29 05:42:12;;;;;;;39.40;20.80;;;12.60;84.40;;;;;;5032297;28;20220;-67
2022/03/29 05:44:38;;;;;;;33.80;20.00;;;12.60;84.90;;;;;;5030979;28;20559;-70
2022/03/29 05:49:50;;;;;;;33.50;18.07;;;12.60;84.80;;;;;;5045158;28;20335;-70
2022/03/29 05:52:15;;;;;;;40.20;20.63;;;12.50;85.00;;;;;;5034960;28;20448;-70
2022/03/29 05:54:45;;;;;;;30.40;18.10;;;12.50;84.80;;;;;;5029113;28;20469;-71
2022/03/29 05:57:11;;;;;;;35.97;19.40;;;12.60;84.70;;;;;;5034293;28;20239;-69
2022/03/29 05:59:37;;;;;;;41.93;20.00;;;12.60;84.50;;;;;;5034189;28;20534;-70
2022/03/29 06:02:04;;;;;;;39.40;21.10;;;12.50;84.30;;;;;;5024982;28;20949;-71
2022/03/29 06:04:31;;;;;;;44.40;21.07;;;12.60;85.70;;;;;;5029652;28;20220;-70
2022/03/29 06:06:57;;;;;;;42.77;22.60;;;12.60;84.70;;;;;;5023598;28;20456;-71
2022/03/29 06:09:23;;;;;;;43.20;22.20;;;12.60;84.60;;;;;;5040432;28;20469;-69
2022/03/29 06:11:49;;;;;;;33.20;19.50;;;12.60;84.90;;;;;;5028315;28;20207;-70
2022/03/29 06:14:15;;;;;;;36.17;20.17;;;12.50;84.50;;;;;;5032514;28;20862;-69
2022/03/29 06:16:42;;;;;;;36.43;19.03;;;12.50;84.70;;;;;;5018941;28;20216;-69
2022/03/29 06:19:09;;;;;;;33.47;20.60;;;12.50;84.70;;;;;;5029662;28;20474;-70
2022/03/29 06:21:36;;;;;;;30.63;17.80;;;12.50;85.00;;;;;;5027251;28;21024;-67
2022/03/29 06:24:03;;;;;;;33.53;17.90;;;12.50;84.90;;;;;;5030183;28;20577;-68
2022/03/29 06:26:30;;;;;;;33.57;17.67;;;12.50;85.70;;;;;;5025446;28;20448;-69
2022/03/29 06:28:56;;;;;;;28.80;16.43;;;12.50;85.50;;;;;;5012933;28;20807;-68
2022/03/29 06:31:22;;;;;;;31.90;17.40;;;12.40;85.30;;;;;;5030338;28;20450;-70
2022/03/29 06:33:49;;;;;;;30.90;17.97;;;12.50;85.30;;;;;;5025619;28;20448;-70
2022/03/29 06:36:15;;;;;;;31.07;17.57;;;12.40;85.50;;;;;;5012128;28;20813;-72
2022/03/29 06:38:41;;;;;;;33.57;18.73;;;12.40;85.50;;;;;;5035852;28;20485;-70
2022/03/29 06:41:06;;;;;;;29.00;17.57;;;12.50;85.70;;;;;;5028429;28;20451;-72
2022/03/29 06:43:35;;;;;;;28.57;16.77;;;12.40;86.00;;;;;;5036490;28;20224;-70
2022/03/29 06:46:02;;;;;;;31.83;18.10;;;12.40;86.20;;;;;;5033418;28;20640;-71
2022/03/29 06:48:27;;;;;;;33.10;17.40;;;12.40;85.80;;;;;;5036476;28;20676;-71
2022/03/29 06:50:53;;;;;;;33.93;19.37;;;12.50;86.30;;;;;;5021367;28;20563;-71
2022/03/29 06:53:19;;;;;;;48.77;22.93;;;12.40;86.40;;;;;;5047597;28;20219;-72
2022/03/29 06:55:45;;;;;;;55.10;30.47;;;12.50;86.30;;;;;;5041340;28;20281;-71
2022/03/29 06:58:10;;;;;;;64.63;33.00;;;12.50;86.20;;;;;;5042744;28;20308;-70
2022/03/29 07:00:36;;;;;;;51.20;27.00;;;12.40;86.30;;;;;;5034946;28;20221;-72
2022/03/29 07:03:02;;;;;;;46.97;25.97;;;12.50;86.50;;;;;;5033978;28;20227;-71
2022/03/29 07:05:28;;;;;;;45.97;22.10;;;12.50;86.60;;;;;;5037128;28;20284;-72
2022/03/29 07:07:53;;;;;;;38.67;21.00;;;12.50;86.90;;;;;;5036320;28;20501;-68
2022/03/29 07:13:04;;;;;;;33.57;20.07;;;12.50;87.30;;;;;;5039328;28;20247;-70
2022/03/29 07:15:30;;;;;;;39.77;20.63;;;12.50;87.30;;;;;;5013286;28;20547;-70
2022/03/29 07:17:56;;;;;;;40.47;18.60;;;12.50;87.40;;;;;;5051992;28;20592;-70
2022/03/29 07:20:22;;;;;;;36.73;19.77;;;12.50;87.50;;;;;;5030448;28;20457;-69
2022/03/29 07:22:50;;;;;;;33.70;19.27;;;12.50;87.90;;;;;;5013617;28;20498;-68
2022/03/29 07:25:18;;;;;;;37.63;21.20;;;12.50;87.50;;;;;;5047289;28;20464;-70
2022/03/29 07:27:45;;;;;;;39.03;19.83;;;12.50;87.90;;;;;;5024953;28;20923;-69
2022/03/29 07:30:11;;;;;;;34.53;19.80;;;12.60;87.80;;;;;;5031091;28;20599;-70
2022/03/29 07:32:49;;;;;;;35.83;19.47;;;12.60;87.60;;;;;;5035988;28;21107;-70
2022/03/29 07:35:16;;;;;;;33.33;18.90;;;12.60;87.90;;;;;;5034689;28;20454;-67
2022/03/29 07:37:43;;;;;;;35.53;19.93;;;12.60;88.00;;;;;;5032382;28;20463;-70
2022/03/29 07:40:10;;;;;;;31.87;18.40;;;12.60;88.00;;;;;;5033467;28;20462;-70
2022/03/29 07:42:36;;;;;;;35.47;19.27;;;12.60;88.20;;;;;;5029265;28;20478;-68
2022/03/29 07:45:04;;;;;;;31.67;15.83;;;12.70;89.00;;;;;;5029484;28;20489;-70
2022/03/29 07:47:31;;;;;;;33.77;17.83;;;12.70;88.80;;;;;;5029136;28;20473;-69
2022/03/29 07:49:57;;;;;;;28.37;16.70;;;12.70;88.80;;;;;;5037753;28;20550;-70
2022/03/29 07:52:22;;;;;;;31.90;17.03;;;12.70;89.20;;;;;;5023711;28;20455;-70
2022/03/29 07:54:48;;;;;;;30.67;17.87;;;12.70;89.10;;;;;;5035188;28;20232;-69
2022/03/29 07:57:14;;;;;;;28.70;16.43;;;12.80;89.30;;;;;;5039997;28;20224;-70
2022/03/29 07:59:40;;;;;;;27.70;15.60;;;12.80;89.40;;;;;;5027993;28;20231;-71
2022/03/29 08:02:06;;;;;;;24.30;14.60;;;12.80;90.00;;;;;;5034327;28;20444;-69
2022/03/29 08:04:35;;;;;;;29.57;16.33;;;12.90;90.10;;;;;;5027921;28;20221;-71
2022/03/29 08:07:00;;;;;;;28.90;14.67;;;12.90;90.10;;;;;;5022497;28;20469;-70
2022/03/29 08:09:27;;;;;;;24.20;15.30;;;12.90;90.50;;;;;;5030134;28;21036;-69
2022/03/29 08:11:55;;;;;;;28.80;16.80;;;13.00;90.60;;;;;;5041481;28;20220;-68
2022/03/29 08:14:21;;;;;;;26.87;15.37;;;13.00;90.70;;;;;;5016254;28;20460;-69
2022/03/29 08:16:47;;;;;;;30.10;16.40;;;13.10;90.60;;;;;;5021638;28;20450;-69
2022/03/29 08:19:14;;;;;;;25.40;15.07;;;13.10;90.70;;;;;;5008373;28;20457;-68
2022/03/29 08:21:49;;;;;;;33.00;17.60;;;13.20;90.80;;;;;;5025730;28;20696;-67
2022/03/29 08:24:23;;;;;;;37.67;17.40;;;13.20;90.90;;;;;;5029189;28;20467;-69
2022/03/29 08:26:53;;;;;;;28.67;16.33;;;13.20;91.00;;;;;;5029270;28;20554;-67
2022/03/29 08:29:21;;;;;;;31.43;18.00;;;13.20;91.10;;;;;;5034422;28;21050;-68
2022/03/29 08:31:49;;;;;;;25.33;16.13;;;13.20;91.10;;;;;;5022407;28;20465;-68
2022/03/29 08:34:16;;;;;;;32.20;16.03;;;13.30;91.00;;;;;;5027050;28;20450;-66
2022/03/29 08:36:42;;;;;;;25.30;14.10;;;13.30;91.10;;;;;;5035378;28;20455;-69
2022/03/29 08:39:09;;;;;;;29.00;15.90;;;13.40;91.20;;;;;;5031011;28;20454;-69
2022/03/29 08:41:38;;;;;;;27.30;15.27;;;13.40;91.30;;;;;;5033970;28;20511;-68
2022/03/29 08:44:05;;;;;;;33.00;15.50;;;13.40;91.20;;;;;;5027667;28;20558;-65
2022/03/29 08:46:36;;;;;;;32.73;16.27;;;13.50;91.20;;;;;;5028044;28;20479;-68
2022/03/29 08:49:03;;;;;;;28.87;15.10;;;13.50;91.20;;;;;;5031953;28;21044;-69
2022/03/29 08:51:29;;;;;;;27.07;15.97;;;13.50;91.00;;;;;;5028243;28;20989;-70
2022/03/29 08:53:55;;;;;;;29.97;15.17;;;13.60;91.10;;;;;;5033709;28;20486;-67
2022/03/29 08:56:21;;;;;;;27.80;15.27;;;13.60;91.00;;;;;;5033716;28;20986;-68
2022/03/29 08:58:47;;;;;;;44.00;16.83;;;13.60;91.10;;;;;;5031593;28;20585;-66
2022/03/29 09:01:13;;;;;;;22.63;14.60;;;13.70;91.20;;;;;;5019696;28;20726;-67
2022/03/29 09:03:39;;;;;;;29.37;16.70;;;13.70;91.10;;;;;;5031479;28;20456;-69
2022/03/29 09:06:07;;;;;;;26.63;14.33;;;13.70;91.00;;;;;;5029578;28;20255;-69
2022/03/29 09:08:43;;;;;;;27.07;14.83;;;13.80;91.20;;;;;;5035609;28;20255;-68
2022/03/29 09:11:09;;;;;;;26.43;15.93;;;13.80;91.10;;;;;;5016480;28;20478;-70
2022/03/29 09:13:35;;;;;;;29.77;15.50;;;13.90;91.10;;;;;;5035712;28;20490;-67
2022/03/29 09:16:03;;;;;;;28.10;16.90;;;13.90;91.00;;;;;;5025673;28;20282;-69
2022/03/29 09:18:31;;;;;;;32.43;18.00;;;13.90;91.10;;;;;;5016860;28;20221;-67
2022/03/29 09:21:13;;;;;;;27.50;18.10;;;13.90;91.10;;;;;;5023315;28;20461;-68
2022/03/29 09:23:40;;;;;;;26.43;15.67;;;13.90;91.20;;;;;;5025426;28;20513;-69
2022/03/29 09:26:07;;;;;;;27.00;16.73;;;14.00;91.20;;;;;;5012601;28;20472;-69
2022/03/29 09:28:38;;;;;;;27.70;15.73;;;14.10;91.20;;;;;;5028342;28;20460;-66
2022/03/29 09:31:25;;;;;;;25.53;15.60;;;14.10;91.20;;;;;;5029918;28;20496;-69
2022/03/29 09:33:51;;;;;;;28.00;15.10;;;14.20;91.40;;;;;;5025495;28;20594;-69
2022/03/29 09:36:20;;;;;;;30.97;17.00;;;14.20;91.20;;;;;;5021866;28;20464;-67
2022/03/29 09:38:48;;;;;;;23.80;13.97;;;14.30;91.30;;;;;;5021473;28;20498;-69
2022/03/29 09:41:20;;;;;;;35.87;16.10;;;14.30;91.10;;;;;;5017821;28;20870;-67
2022/03/29 09:44:00;;;;;;;23.90;14.80;;;14.30;91.10;;;;;;5025660;28;21004;-69
2022/03/29 09:46:26;;;;;;;24.27;13.73;;;14.40;91.10;;;;;;5028884;28;20565;-68
2022/03/29 09:48:59;;;;;;;30.20;16.20;;;14.40;91.10;;;;;;5032208;28;20460;-68
2022/03/29 09:51:27;;;;;;;27.77;16.03;;;14.50;91.10;;;;;;5031845;28;20446;-67
2022/03/29 09:53:55;;;;;;;22.30;13.80;;;14.50;91.00;;;;;;5030167;28;20591;-68
2022/03/29 09:56:26;;;;;;;21.40;13.63;;;14.60;91.20;;;;;;5029809;28;20447;-69
2022/03/29 09:59:06;;;;;;;21.13;11.90;;;14.70;91.20;;;;;;5027926;28;20523;-68
2022/03/29 10:01:44;;;;;;;21.73;13.17;;;14.90;91.10;;;;;;5025282;28;20998;-68
2022/03/29 10:04:10;;;;;;;22.77;13.00;;;14.90;91.00;;;;;;5022925;28;20474;-68
2022/03/29 10:06:36;;;;;;;29.13;13.07;;;15.00;90.90;;;;;;5023447;28;20458;-69
2022/03/29 10:11:47;;;;;;;22.50;12.93;;;15.00;90.70;;;;;;5032624;28;20227;-68
2022/03/29 10:14:15;;;;;;;24.97;15.00;;;15.20;91.00;;;;;;5033901;28;20828;-69
2022/03/29 10:16:44;;;;;;;22.10;13.87;;;15.20;90.50;;;;;;5033747;28;20490;-69
2022/03/29 10:19:10;;;;;;;23.30;13.70;;;15.20;90.50;;;;;;5035407;28;20461;-68
2022/03/29 10:21:36;;;;;;;22.37;12.93;;;15.30;90.60;;;;;;5034349;28;20454;-69
2022/03/29 10:24:02;;;;;;;19.83;12.90;;;15.30;90.30;;;;;;5024617;28;20487;-66
2022/03/29 10:26:28;;;;;;;23.27;12.93;;;15.40;90.50;;;;;;5037066;28;20478;-69
2022/03/29 10:28:54;;;;;;;20.00;13.00;;;15.40;90.50;;;;;;5031747;28;20212;-68
2022/03/29 10:31:30;;;;;;;24.80;13.50;;;15.50;90.50;;;;;;5031942;28;20216;-69
2022/03/29 10:34:16;;;;;;;20.80;12.47;;;15.60;90.40;;;;;;5032022;28;20232;-67
2022/03/29 10:37:21;;;;;;;22.23;12.03;;;15.80;90.40;;;;;;5029922;28;20516;-68
2022/03/29 10:39:56;;;;;;;18.67;11.57;;;15.80;90.20;;;;;;5028551;28;20445;-69
2022/03/29 10:42:38;;;;;;;21.07;12.30;;;16.00;90.10;;;;;;5040531;28;20443;-69
2022/03/29 10:45:22;;;;;;;16.83;11.10;;;16.10;90.10;;;;;;5035240;28;20478;-69
2022/03/29 10:48:03;;;;;;;14.67;9.43;;;16.10;90.00;;;;;;5032867;28;20472;-69
2022/03/29 10:50:55;;;;;;;18.33;10.90;;;16.10;88.80;;;;;;5044817;28;21034;-67
2022/03/29 10:53:34;;;;;;;18.90;10.87;;;16.10;89.00;;;;;;5030660;28;20520;-69
2022/03/29 10:56:19;;;;;;;23.80;11.50;;;16.10;89.30;;;;;;5033880;28;20865;-68
2022/03/29 10:59:08;;;;;;;17.53;11.07;;;16.10;88.90;;;;;;5043999;28;20947;-67
2022/03/29 11:01:37;;;;;;;20.00;11.60;;;16.20;89.10;;;;;;5036182;28;20455;-68
2022/03/29 11:04:07;;;;;;;22.97;13.70;;;16.20;88.80;;;;;;5029607;28;20614;-68
2022/03/29 11:06:33;;;;;;;22.80;13.73;;;16.10;87.70;;;;;;5036848;28;20497;-68
2022/03/29 11:09:16;;;;;;;20.57;14.27;;;16.10;88.70;;;;;;5032420;28;20528;-70
2022/03/29 11:11:47;;;;;;;21.70;13.17;;;16.10;88.80;;;;;;5003398;28;20884;-68
2022/03/29 11:17:17;;;;;;;20.47;13.30;;;16.30;88.90;;;;;;5051994;28;20541;-68
2022/03/29 11:19:48;;;;;;;15.23;11.17;;;16.40;88.30;;;;;;5025639;28;20526;-68
2022/03/29 11:22:25;;;;;;;17.30;11.70;;;16.50;88.90;;;;;;5036024;28;20453;-69
2022/03/29 11:25:05;;;;;;;18.80;12.00;;;16.50;88.50;;;;;;5027549;28;20478;-67
2022/03/29 11:27:34;;;;;;;17.83;10.77;;;16.60;87.90;;;;;;5035926;28;20459;-68
2022/03/29 11:30:02;;;;;;;17.20;11.87;;;16.70;88.30;;;;;;5039311;28;20466;-66
2022/03/29 11:32:29;;;;;;;16.00;10.57;;;16.80;88.40;;;;;;5021159;28;21069;-69
2022/03/29 11:34:58;;;;;;;17.50;11.63;;;16.90;88.50;;;;;;5034539;28;20458;-70
2022/03/29 11:37:29;;;;;;;21.00;12.00;;;16.90;88.10;;;;;;5037806;28;20460;-68
2022/03/29 11:39:56;;;;;;;20.23;12.43;;;16.90;87.80;;;;;;5042241;28;20469;-69
2022/03/29 11:42:22;;;;;;;20.37;12.07;;;16.90;87.70;;;;;;5027517;28;20470;-69
2022/03/29 11:44:48;;;;;;;25.43;14.17;;;16.90;87.70;;;;;;5034891;28;20475;-67
2022/03/29 11:47:14;;;;;;;16.67;10.77;;;16.80;87.30;;;;;;5025703;28;20263;-68
2022/03/29 11:49:41;;;;;;;17.53;11.30;;;16.80;87.60;;;;;;5045361;28;20454;-70
2022/03/29 11:52:11;;;;;;;18.83;11.30;;;16.80;87.70;;;;;;5029952;28;20204;-68
2022/03/29 11:54:44;;;;;;;18.13;11.33;;;16.90;88.00;;;;;;5035168;28;20450;-68
2022/03/29 11:57:19;;;;;;;17.23;10.37;;;17.00;87.70;;;;;;5031999;28;20451;-68
2022/03/29 11:59:45;;;;;;;17.50;11.30;;;17.00;87.50;;;;;;5034035;28;20537;-69
2022/03/29 12:02:12;;;;;;;15.40;9.93;;;17.10;87.10;;;;;;5034439;28;20475;-69
2022/03/29 12:04:38;;;;;;;17.50;10.20;;;17.20;86.70;;;;;;5032482;28;20458;-70
2022/03/29 12:07:04;;;;;;;16.30;11.07;;;17.20;87.00;;;;;;5035281;28;20451;-68
2022/03/29 12:09:31;;;;;;;19.17;11.37;;;17.20;86.70;;;;;;5026013;28;20509;-68
2022/03/29 12:11:59;;;;;;;22.40;12.70;;;17.20;86.40;;;;;;5034218;28;20454;-68
2022/03/29 12:14:26;;;;;;;21.57;13.40;;;17.30;86.60;;;;;;5017421;28;20452;-67
2022/03/29 12:17:03;;;;;;;25.13;17.90;;;17.30;86.40;;;;;;5028991;28;20465;-68
2022/03/29 12:19:29;;;;;;;28.13;16.80;;;17.30;86.40;;;;;;5038023;28;20488;-69
2022/03/29 12:22:07;;;;;;;23.80;15.17;;;17.30;86.50;;;;;;5038340;28;20462;-70
2022/03/29 12:24:37;;;;;;;15.90;12.13;;;17.20;85.60;;;;;;5026782;28;20450;-68
2022/03/29 12:27:14;;;;;;;18.00;11.37;;;17.20;86.20;;;;;;5036331;28;20508;-69
2022/03/29 12:29:52;;;;;;;20.47;12.83;;;17.30;86.40;;;;;;5030006;28;20578;-68
2022/03/29 12:32:18;;;;;;;22.97;12.57;;;17.30;86.20;;;;;;5029373;28;20450;-69
2022/03/29 12:34:53;;;;;;;20.80;12.57;;;17.30;85.90;;;;;;5025716;28;20543;-69
2022/03/29 12:37:19;;;;;;;23.90;12.80;;;17.20;86.20;;;;;;5005597;28;20486;-68
2022/03/29 12:39:45;;;;;;;19.50;12.57;;;17.30;86.30;;;;;;5033673;28;20497;-69
2022/03/29 12:42:16;;;;;;;21.97;13.60;;;17.30;86.30;;;;;;5039243;28;20220;-68
2022/03/29 12:44:46;;;;;;;21.60;14.13;;;17.40;86.10;;;;;;5032266;28;20462;-69
2022/03/29 12:47:14;;;;;;;18.30;12.80;;;17.40;86.10;;;;;;5035583;28;20507;-68